sensor_id;sensor_type;location;lat;lon;timestamp;P1;durP1;ratioP1;P2;durP2;ratioP2
17662;SDS011;8950;56.892;15.090;2023-02-15T00:01:23;3.65;;;2.95;;
17662;SDS011;8950;56.892;15.090;2023-02-15T00:03:50;4.97;;;3.00;;
17662;SDS011;8950;56.892;15.090;2023-02-15T00:06:18;3.40;;;3.10;;
17662;SDS011;8950;56.892;15.090;2023-02-15T00:08:45;4.13;;;3.30;;
17662;SDS011;8950;56.892;15.090;2023-02-15T00:11:12;4.35;;;3.10;;
17662;SDS011;8950;56.892;15.090;2023-02-15T00:13:39;3.53;;;3.20;;
17662;SDS011;8950;56.892;15.090;2023-02-15T00:16:08;3.20;;;3.00;;
17662;SDS011;8950;56.892;15.090;2023-02-15T00:18:34;3.40;;;3.10;;
17662;SDS011;8950;56.892;15.090;2023-02-15T00:21:03;3.72;;;3.00;;
17662;SDS011;8950;56.892;15.090;2023-02-15T00:23:31;3.65;;;3.20;;
17662;SDS011;8950;56.892;15.090;2023-02-15T00:26:04;5.25;;;3.15;;
17662;SDS011;8950;56.892;15.090;2023-02-15T00:28:31;3.47;;;3.15;;
17662;SDS011;8950;56.892;15.090;2023-02-15T00:31:02;4.57;;;3.42;;
17662;SDS011;8950;56.892;15.090;2023-02-15T00:33:28;5.63;;;3.55;;
17662;SDS011;8950;56.892;15.090;2023-02-15T00:35:56;3.45;;;3.20;;
17662;SDS011;8950;56.892;15.090;2023-02-15T00:38:23;4.38;;;3.20;;
17662;SDS011;8950;56.892;15.090;2023-02-15T00:40:53;3.63;;;3.33;;
17662;SDS011;8950;56.892;15.090;2023-02-15T00:43:20;3.28;;;2.97;;
17662;SDS011;8950;56.892;15.090;2023-02-15T00:45:46;6.35;;;3.28;;
17662;SDS011;8950;56.892;15.090;2023-02-15T00:48:13;4.70;;;3.53;;
17662;SDS011;8950;56.892;15.090;2023-02-15T00:53:42;3.42;;;3.13;;
17662;SDS011;8950;56.892;15.090;2023-02-15T00:56:11;4.25;;;3.60;;
17662;SDS011;8950;56.892;15.090;2023-02-15T00:58:37;3.60;;;3.30;;
17662;SDS011;8950;56.892;15.090;2023-02-15T01:01:04;4.95;;;3.88;;
17662;SDS011;8950;56.892;15.090;2023-02-15T04:31:10;7.50;;;6.90;;
17662;SDS011;8950;56.892;15.090;2023-02-15T04:33:36;7.60;;;6.90;;
17662;SDS011;8950;56.892;15.090;2023-02-15T04:36:03;7.20;;;6.60;;
17662;SDS011;8950;56.892;15.090;2023-02-15T04:38:30;8.20;;;7.40;;
17662;SDS011;8950;56.892;15.090;2023-02-15T04:40:56;9.65;;;7.28;;
17662;SDS011;8950;56.892;15.090;2023-02-15T04:43:22;7.32;;;6.72;;
17662;SDS011;8950;56.892;15.090;2023-02-15T04:45:49;7.57;;;6.93;;
17662;SDS011;8950;56.892;15.090;2023-02-15T04:48:18;7.88;;;7.10;;
17662;SDS011;8950;56.892;15.090;2023-02-15T04:50:44;7.82;;;7.13;;
17662;SDS011;8950;56.892;15.090;2023-02-15T04:53:10;7.75;;;7.15;;
17662;SDS011;8950;56.892;15.090;2023-02-15T04:55:37;7.65;;;7.10;;
17662;SDS011;8950;56.892;15.090;2023-02-15T04:58:03;7.85;;;7.05;;
17662;SDS011;8950;56.892;15.090;2023-02-15T05:00:30;7.53;;;6.93;;
17662;SDS011;8950;56.892;15.090;2023-02-15T05:02:56;7.53;;;6.90;;
17662;SDS011;8950;56.892;15.090;2023-02-15T05:05:24;7.05;;;6.45;;
17662;SDS011;8950;56.892;15.090;2023-02-15T05:07:50;7.20;;;6.60;;
17662;SDS011;8950;56.892;15.090;2023-02-15T05:10:17;7.35;;;6.75;;
17662;SDS011;8950;56.892;15.090;2023-02-15T05:12:43;7.95;;;7.35;;
17662;SDS011;8950;56.892;15.090;2023-02-15T05:15:09;7.30;;;6.63;;
17662;SDS011;8950;56.892;15.090;2023-02-15T05:17:36;7.35;;;6.82;;
17662;SDS011;8950;56.892;15.090;2023-02-15T05:20:03;8.40;;;7.57;;
17662;SDS011;8950;56.892;15.090;2023-02-15T05:22:30;7.97;;;7.20;;
17662;SDS011;8950;56.892;15.090;2023-02-15T05:24:57;7.80;;;7.20;;
17662;SDS011;8950;56.892;15.090;2023-02-15T05:27:41;7.65;;;6.95;;
17662;SDS011;8950;56.892;15.090;2023-02-15T05:30:25;7.90;;;7.25;;
17662;SDS011;8950;56.892;15.090;2023-02-15T05:32:51;8.68;;;7.97;;
17662;SDS011;8950;56.892;15.090;2023-02-15T05:35:18;8.02;;;7.43;;
17662;SDS011;8950;56.892;15.090;2023-02-15T05:37:46;8.27;;;7.57;;
17662;SDS011;8950;56.892;15.090;2023-02-15T05:40:12;8.85;;;8.15;;
17662;SDS011;8950;56.892;15.090;2023-02-15T05:42:39;8.48;;;7.78;;
17662;SDS011;8950;56.892;15.090;2023-02-15T05:45:05;8.73;;;8.02;;
17662;SDS011;8950;56.892;15.090;2023-02-15T05:47:32;8.90;;;8.10;;
17662;SDS011;8950;56.892;15.090;2023-02-15T05:49:59;9.05;;;8.25;;
17662;SDS011;8950;56.892;15.090;2023-02-15T05:52:25;7.78;;;7.20;;
17662;SDS011;8950;56.892;15.090;2023-02-15T05:54:53;9.05;;;8.35;;
17662;SDS011;8950;56.892;15.090;2023-02-15T05:57:19;8.73;;;8.02;;
17662;SDS011;8950;56.892;15.090;2023-02-15T05:59:46;8.60;;;7.78;;
17662;SDS011;8950;56.892;15.090;2023-02-15T06:02:12;8.77;;;8.10;;
17662;SDS011;8950;56.892;15.090;2023-02-15T06:04:38;8.95;;;8.18;;
17662;SDS011;8950;56.892;15.090;2023-02-15T06:07:05;8.75;;;8.15;;
17662;SDS011;8950;56.892;15.090;2023-02-15T06:09:31;9.05;;;8.23;;
17662;SDS011;8950;56.892;15.090;2023-02-15T06:11:59;9.35;;;8.55;;
17662;SDS011;8950;56.892;15.090;2023-02-15T06:14:25;9.45;;;8.63;;
17662;SDS011;8950;56.892;15.090;2023-02-15T06:16:52;9.48;;;8.77;;
17662;SDS011;8950;56.892;15.090;2023-02-15T06:19:18;9.40;;;8.63;;
17662;SDS011;8950;56.892;15.090;2023-02-15T06:21:46;9.10;;;8.30;;
17662;SDS011;8950;56.892;15.090;2023-02-15T06:24:12;9.43;;;8.63;;
17662;SDS011;8950;56.892;15.090;2023-02-15T06:26:38;9.27;;;8.57;;
17662;SDS011;8950;56.892;15.090;2023-02-15T06:29:06;10.07;;;9.20;;
17662;SDS011;8950;56.892;15.090;2023-02-15T06:31:33;9.68;;;8.77;;
17662;SDS011;8950;56.892;15.090;2023-02-15T06:33:59;9.77;;;8.98;;
17662;SDS011;8950;56.892;15.090;2023-02-15T06:36:27;9.50;;;8.70;;
17662;SDS011;8950;56.892;15.090;2023-02-15T06:38:53;9.18;;;8.48;;
17662;SDS011;8950;56.892;15.090;2023-02-15T06:41:20;9.80;;;8.98;;
17662;SDS011;8950;56.892;15.090;2023-02-15T06:43:46;9.55;;;8.75;;
17662;SDS011;8950;56.892;15.090;2023-02-15T06:46:14;9.63;;;8.82;;
17662;SDS011;8950;56.892;15.090;2023-02-15T06:48:40;9.90;;;9.10;;
17662;SDS011;8950;56.892;15.090;2023-02-15T06:51:07;9.82;;;9.02;;
17662;SDS011;8950;56.892;15.090;2023-02-15T06:53:33;10.38;;;9.48;;
17662;SDS011;8950;56.892;15.090;2023-02-15T06:56:00;9.10;;;8.40;;
17662;SDS011;8950;56.892;15.090;2023-02-15T06:58:31;9.45;;;8.70;;
17662;SDS011;8950;56.892;15.090;2023-02-15T07:00:57;9.57;;;8.68;;
17662;SDS011;8950;56.892;15.090;2023-02-15T07:03:25;10.13;;;9.27;;
17662;SDS011;8950;56.892;15.090;2023-02-15T07:05:53;10.38;;;9.48;;
17662;SDS011;8950;56.892;15.090;2023-02-15T07:08:20;10.27;;;9.35;;
17662;SDS011;8950;56.892;15.090;2023-02-15T07:10:46;11.60;;;10.70;;
17662;SDS011;8950;56.892;15.090;2023-02-15T07:13:14;10.10;;;9.20;;
17662;SDS011;8950;56.892;15.090;2023-02-15T07:15:40;10.70;;;9.80;;
17662;SDS011;8950;56.892;15.090;2023-02-15T07:18:06;10.23;;;9.50;;
17662;SDS011;8950;56.892;15.090;2023-02-15T07:20:35;10.30;;;9.50;;
17662;SDS011;8950;56.892;15.090;2023-02-15T07:23:01;10.57;;;9.77;;
17662;SDS011;8950;56.892;15.090;2023-02-15T07:25:28;10.50;;;9.65;;
17662;SDS011;8950;56.892;15.090;2023-02-15T07:27:55;10.60;;;9.68;;
17662;SDS011;8950;56.892;15.090;2023-02-15T07:30:22;11.30;;;10.32;;
17662;SDS011;8950;56.892;15.090;2023-02-15T07:32:48;11.30;;;10.50;;
17662;SDS011;8950;56.892;15.090;2023-02-15T07:35:33;11.30;;;10.20;;
17662;SDS011;8950;56.892;15.090;2023-02-15T07:38:00;11.23;;;10.23;;
17662;SDS011;8950;56.892;15.090;2023-02-15T07:40:27;11.00;;;9.80;;
17662;SDS011;8950;56.892;15.090;2023-02-15T07:42:53;11.63;;;10.73;;
17662;SDS011;8950;56.892;15.090;2023-02-15T07:45:21;11.48;;;10.57;;
17662;SDS011;8950;56.892;15.090;2023-02-15T07:47:48;10.73;;;9.73;;
17662;SDS011;8950;56.892;15.090;2023-02-15T07:50:14;10.68;;;9.77;;
17662;SDS011;8950;56.892;15.090;2023-02-15T07:52:41;11.18;;;10.25;;
17662;SDS011;8950;56.892;15.090;2023-02-15T07:55:09;11.45;;;10.50;;
17662;SDS011;8950;56.892;15.090;2023-02-15T07:57:38;11.40;;;10.50;;
17662;SDS011;8950;56.892;15.090;2023-02-15T08:00:07;10.98;;;10.10;;
17662;SDS011;8950;56.892;15.090;2023-02-15T08:02:34;12.00;;;10.93;;
17662;SDS011;8950;56.892;15.090;2023-02-15T08:05:02;11.90;;;10.65;;
17662;SDS011;8950;56.892;15.090;2023-02-15T08:07:28;11.65;;;10.70;;
17662;SDS011;8950;56.892;15.090;2023-02-15T08:09:54;10.60;;;9.75;;
17662;SDS011;8950;56.892;15.090;2023-02-15T08:12:22;11.27;;;10.32;;
17662;SDS011;8950;56.892;15.090;2023-02-15T08:14:49;11.52;;;10.70;;
17662;SDS011;8950;56.892;15.090;2023-02-15T08:17:15;11.35;;;10.45;;
17662;SDS011;8950;56.892;15.090;2023-02-15T08:19:41;10.60;;;9.80;;
17662;SDS011;8950;56.892;15.090;2023-02-15T08:22:11;11.98;;;10.95;;
17662;SDS011;8950;56.892;15.090;2023-02-15T08:24:38;11.90;;;10.85;;
17662;SDS011;8950;56.892;15.090;2023-02-15T08:27:06;11.60;;;10.68;;
17662;SDS011;8950;56.892;15.090;2023-02-15T08:29:34;11.95;;;11.02;;
17662;SDS011;8950;56.892;15.090;2023-02-15T08:32:02;11.73;;;10.77;;
17662;SDS011;8950;56.892;15.090;2023-02-15T08:34:30;12.57;;;11.48;;
17662;SDS011;8950;56.892;15.090;2023-02-15T08:36:56;12.27;;;11.18;;
17662;SDS011;8950;56.892;15.090;2023-02-15T08:39:23;12.60;;;11.50;;
17662;SDS011;8950;56.892;15.090;2023-02-15T08:41:49;12.60;;;11.40;;
17662;SDS011;8950;56.892;15.090;2023-02-15T08:44:16;11.80;;;10.77;;
17662;SDS011;8950;56.892;15.090;2023-02-15T08:46:45;12.52;;;11.32;;
17662;SDS011;8950;56.892;15.090;2023-02-15T08:49:12;13.05;;;11.95;;
17662;SDS011;8950;56.892;15.090;2023-02-15T08:51:39;12.88;;;11.77;;
17662;SDS011;8950;56.892;15.090;2023-02-15T08:54:06;13.15;;;11.95;;
17662;SDS011;8950;56.892;15.090;2023-02-15T08:56:35;14.07;;;12.77;;
17662;SDS011;8950;56.892;15.090;2023-02-15T08:59:02;13.50;;;12.30;;
17662;SDS011;8950;56.892;15.090;2023-02-15T09:01:29;12.90;;;11.70;;
17662;SDS011;8950;56.892;15.090;2023-02-15T09:03:58;13.13;;;11.90;;
17662;SDS011;8950;56.892;15.090;2023-02-15T09:06:25;14.48;;;13.07;;
17662;SDS011;8950;56.892;15.090;2023-02-15T09:08:52;12.90;;;11.63;;
17662;SDS011;8950;56.892;15.090;2023-02-15T09:11:20;12.93;;;11.73;;
17662;SDS011;8950;56.892;15.090;2023-02-15T09:13:49;13.50;;;12.10;;
17662;SDS011;8950;56.892;15.090;2023-02-15T09:16:15;12.68;;;11.48;;
17662;SDS011;8950;56.892;15.090;2023-02-15T09:18:42;11.93;;;10.82;;
17662;SDS011;8950;56.892;15.090;2023-02-15T09:21:11;13.32;;;12.02;;
17662;SDS011;8950;56.892;15.090;2023-02-15T09:23:38;12.25;;;11.02;;
17662;SDS011;8950;56.892;15.090;2023-02-15T09:26:06;12.40;;;10.93;;
17662;SDS011;8950;56.892;15.090;2023-02-15T09:28:33;12.60;;;11.40;;
17662;SDS011;8950;56.892;15.090;2023-02-15T09:31:07;13.43;;;12.02;;
17662;SDS011;8950;56.892;15.090;2023-02-15T09:33:33;12.23;;;11.02;;
17662;SDS011;8950;56.892;15.090;2023-02-15T09:36:01;12.85;;;11.60;;
17662;SDS011;8950;56.892;15.090;2023-02-15T09:38:29;13.73;;;12.25;;
17662;SDS011;8950;56.892;15.090;2023-02-15T09:40:58;12.45;;;11.30;;
17662;SDS011;8950;56.892;15.090;2023-02-15T09:43:29;13.23;;;11.82;;
17662;SDS011;8950;56.892;15.090;2023-02-15T09:46:03;12.18;;;10.98;;
17662;SDS011;8950;56.892;15.090;2023-02-15T09:48:38;14.20;;;11.73;;
17662;SDS011;8950;56.892;15.090;2023-02-15T09:51:09;13.10;;;11.68;;
17662;SDS011;8950;56.892;15.090;2023-02-15T09:53:45;13.18;;;11.77;;
17662;SDS011;8950;56.892;15.090;2023-02-15T09:56:14;12.70;;;11.40;;
17662;SDS011;8950;56.892;15.090;2023-02-15T09:58:44;12.82;;;11.52;;
17662;SDS011;8950;56.892;15.090;2023-02-15T10:01:15;12.68;;;11.38;;
17662;SDS011;8950;56.892;15.090;2023-02-15T10:03:49;13.38;;;11.98;;
17662;SDS011;8950;56.892;15.090;2023-02-15T10:06:27;12.85;;;11.50;;
17662;SDS011;8950;56.892;15.090;2023-02-15T10:11:42;14.73;;;12.07;;
17662;SDS011;8950;56.892;15.090;2023-02-15T10:14:22;13.40;;;12.00;;
17662;SDS011;8950;56.892;15.090;2023-02-15T10:16:54;16.67;;;12.68;;
17662;SDS011;8950;56.892;15.090;2023-02-15T10:19:23;14.80;;;12.77;;
17662;SDS011;8950;56.892;15.090;2023-02-15T10:21:55;15.27;;;12.80;;
17662;SDS011;8950;56.892;15.090;2023-02-15T10:24:36;13.90;;;12.35;;
17662;SDS011;8950;56.892;15.090;2023-02-15T10:27:08;14.57;;;12.38;;
17662;SDS011;8950;56.892;15.090;2023-02-15T10:29:37;15.07;;;12.95;;
17662;SDS011;8950;56.892;15.090;2023-02-15T10:32:05;15.77;;;13.32;;
17662;SDS011;8950;56.892;15.090;2023-02-15T10:34:38;16.20;;;14.45;;
17662;SDS011;8950;56.892;15.090;2023-02-15T10:37:12;17.13;;;14.18;;
17662;SDS011;8950;56.892;15.090;2023-02-15T10:39:46;18.52;;;15.23;;
17662;SDS011;8950;56.892;15.090;2023-02-15T10:42:19;18.33;;;14.68;;
17662;SDS011;8950;56.892;15.090;2023-02-15T10:44:50;19.15;;;14.57;;
17662;SDS011;8950;56.892;15.090;2023-02-15T10:47:22;18.65;;;14.55;;
17662;SDS011;8950;56.892;15.090;2023-02-15T10:50:01;18.00;;;15.50;;
17662;SDS011;8950;56.892;15.090;2023-02-15T10:52:31;17.70;;;14.52;;
17662;SDS011;8950;56.892;15.090;2023-02-15T10:55:02;18.75;;;13.98;;
17662;SDS011;8950;56.892;15.090;2023-02-15T10:57:34;19.98;;;16.05;;
17662;SDS011;8950;56.892;15.090;2023-02-15T11:00:05;21.25;;;14.32;;
17662;SDS011;8950;56.892;15.090;2023-02-15T11:02:38;20.10;;;15.80;;
17662;SDS011;8950;56.892;15.090;2023-02-15T11:05:16;19.33;;;16.08;;
17662;SDS011;8950;56.892;15.090;2023-02-15T11:07:46;18.10;;;15.68;;
17662;SDS011;8950;56.892;15.090;2023-02-15T11:10:19;22.60;;;15.95;;
17662;SDS011;8950;56.892;15.090;2023-02-15T11:12:50;21.02;;;16.48;;
17662;SDS011;8950;56.892;15.090;2023-02-15T11:15:18;20.50;;;16.63;;
17662;SDS011;8950;56.892;15.090;2023-02-15T11:17:48;23.05;;;17.80;;
17662;SDS011;8950;56.892;15.090;2023-02-15T11:20:17;26.05;;;18.67;;
17662;SDS011;8950;56.892;15.090;2023-02-15T11:22:46;19.83;;;15.45;;
17662;SDS011;8950;56.892;15.090;2023-02-15T11:25:16;23.13;;;17.85;;
17662;SDS011;8950;56.892;15.090;2023-02-15T11:27:43;20.55;;;17.13;;
17662;SDS011;8950;56.892;15.090;2023-02-15T11:30:15;21.92;;;17.15;;
17662;SDS011;8950;56.892;15.090;2023-02-15T11:32:43;23.10;;;17.60;;
17662;SDS011;8950;56.892;15.090;2023-02-15T11:35:17;25.42;;;17.92;;
17662;SDS011;8950;56.892;15.090;2023-02-15T11:37:45;22.58;;;17.65;;
17662;SDS011;8950;56.892;15.090;2023-02-15T11:40:15;24.63;;;17.75;;
17662;SDS011;8950;56.892;15.090;2023-02-15T11:42:43;22.52;;;17.00;;
17662;SDS011;8950;56.892;15.090;2023-02-15T11:45:16;25.50;;;18.60;;
17662;SDS011;8950;56.892;15.090;2023-02-15T11:47:45;24.58;;;17.77;;
17662;SDS011;8950;56.892;15.090;2023-02-15T11:50:12;21.73;;;16.98;;
17662;SDS011;8950;56.892;15.090;2023-02-15T11:52:39;24.30;;;18.08;;
17662;SDS011;8950;56.892;15.090;2023-02-15T11:55:09;29.10;;;19.30;;
17662;SDS011;8950;56.892;15.090;2023-02-15T11:57:38;26.45;;;19.20;;
17662;SDS011;8950;56.892;15.090;2023-02-15T12:00:09;22.92;;;16.77;;
17662;SDS011;8950;56.892;15.090;2023-02-15T12:02:38;20.20;;;16.15;;
17662;SDS011;8950;56.892;15.090;2023-02-15T12:05:09;22.60;;;17.05;;
17662;SDS011;8950;56.892;15.090;2023-02-15T12:07:40;22.13;;;16.63;;
17662;SDS011;8950;56.892;15.090;2023-02-15T12:10:13;26.33;;;17.67;;
17662;SDS011;8950;56.892;15.090;2023-02-15T12:12:43;23.85;;;17.13;;
17662;SDS011;8950;56.892;15.090;2023-02-15T12:15:10;20.50;;;16.92;;
17662;SDS011;8950;56.892;15.090;2023-02-15T12:17:39;19.48;;;16.00;;
17662;SDS011;8950;56.892;15.090;2023-02-15T12:20:07;22.48;;;15.93;;
17662;SDS011;8950;56.892;15.090;2023-02-15T12:22:48;19.52;;;15.93;;
17662;SDS011;8950;56.892;15.090;2023-02-15T12:25:20;18.55;;;15.38;;
17662;SDS011;8950;56.892;15.090;2023-02-15T12:27:47;20.08;;;16.15;;
17662;SDS011;8950;56.892;15.090;2023-02-15T12:30:15;21.20;;;15.93;;
17662;SDS011;8950;56.892;15.090;2023-02-15T12:32:48;19.65;;;15.75;;
17662;SDS011;8950;56.892;15.090;2023-02-15T12:35:18;20.50;;;16.92;;
17662;SDS011;8950;56.892;15.090;2023-02-15T12:37:54;19.25;;;15.43;;
17662;SDS011;8950;56.892;15.090;2023-02-15T12:40:22;19.65;;;15.35;;
17662;SDS011;8950;56.892;15.090;2023-02-15T12:42:49;21.52;;;16.20;;
17662;SDS011;8950;56.892;15.090;2023-02-15T12:45:23;18.45;;;14.95;;
17662;SDS011;8950;56.892;15.090;2023-02-15T12:48:07;19.33;;;15.88;;
17662;SDS011;8950;56.892;15.090;2023-02-15T12:50:34;18.15;;;15.00;;
17662;SDS011;8950;56.892;15.090;2023-02-15T12:53:05;18.98;;;15.57;;
17662;SDS011;8950;56.892;15.090;2023-02-15T12:55:32;17.23;;;15.10;;
17662;SDS011;8950;56.892;15.090;2023-02-15T12:58:06;20.25;;;16.48;;
17662;SDS011;8950;56.892;15.090;2023-02-15T13:00:33;19.20;;;15.35;;
17662;SDS011;8950;56.892;15.090;2023-02-15T13:03:01;19.63;;;14.75;;
17662;SDS011;8950;56.892;15.090;2023-02-15T13:05:30;19.23;;;14.45;;
17662;SDS011;8950;56.892;15.090;2023-02-15T13:07:57;19.65;;;15.07;;
17662;SDS011;8950;56.892;15.090;2023-02-15T13:10:25;16.80;;;14.45;;
17662;SDS011;8950;56.892;15.090;2023-02-15T13:12:53;19.70;;;15.23;;
17662;SDS011;8950;56.892;15.090;2023-02-15T13:15:25;17.65;;;15.00;;
17662;SDS011;8950;56.892;15.090;2023-02-15T13:17:52;17.50;;;14.65;;
17662;SDS011;8950;56.892;15.090;2023-02-15T13:20:20;16.90;;;13.48;;
17662;SDS011;8950;56.892;15.090;2023-02-15T13:22:49;18.67;;;14.88;;
17662;SDS011;8950;56.892;15.090;2023-02-15T13:25:17;17.20;;;15.00;;
17662;SDS011;8950;56.892;15.090;2023-02-15T13:27:45;17.65;;;14.30;;
17662;SDS011;8950;56.892;15.090;2023-02-15T13:30:22;16.83;;;13.57;;
17662;SDS011;8950;56.892;15.090;2023-02-15T13:32:51;16.20;;;13.45;;
17662;SDS011;8950;56.892;15.090;2023-02-15T13:35:18;16.77;;;14.25;;
17662;SDS011;8950;56.892;15.090;2023-02-15T13:37:51;18.13;;;14.30;;
17662;SDS011;8950;56.892;15.090;2023-02-15T13:40:22;18.25;;;13.40;;
17662;SDS011;8950;56.892;15.090;2023-02-15T13:42:52;18.77;;;14.85;;
17662;SDS011;8950;56.892;15.090;2023-02-15T13:45:23;17.02;;;13.35;;
17662;SDS011;8950;56.892;15.090;2023-02-15T13:47:56;19.23;;;15.10;;
17662;SDS011;8950;56.892;15.090;2023-02-15T13:50:31;18.23;;;15.00;;
17662;SDS011;8950;56.892;15.090;2023-02-15T13:53:08;16.85;;;14.48;;
17662;SDS011;8950;56.892;15.090;2023-02-15T13:55:37;19.58;;;15.25;;
17662;SDS011;8950;56.892;15.090;2023-02-15T13:58:13;17.83;;;14.23;;
17662;SDS011;8950;56.892;15.090;2023-02-15T14:00:44;15.88;;;13.82;;
17662;SDS011;8950;56.892;15.090;2023-02-15T14:06:00;20.60;;;15.32;;
17662;SDS011;8950;56.892;15.090;2023-02-15T14:08:37;18.50;;;14.13;;
17662;SDS011;8950;56.892;15.090;2023-02-15T14:11:06;17.15;;;14.02;;
17662;SDS011;8950;56.892;15.090;2023-02-15T14:16:17;16.85;;;13.75;;
17662;SDS011;8950;56.892;15.090;2023-02-15T14:18:46;16.65;;;13.32;;
17662;SDS011;8950;56.892;15.090;2023-02-15T14:21:15;15.15;;;13.32;;
17662;SDS011;8950;56.892;15.090;2023-02-15T14:23:47;14.85;;;12.85;;
17662;SDS011;8950;56.892;15.090;2023-02-15T14:26:18;15.23;;;12.65;;
17662;SDS011;8950;56.892;15.090;2023-02-15T14:28:49;15.13;;;12.75;;
17662;SDS011;8950;56.892;15.090;2023-02-15T14:31:17;15.98;;;12.68;;
17662;SDS011;8950;56.892;15.090;2023-02-15T14:33:47;15.65;;;13.98;;
17662;SDS011;8950;56.892;15.090;2023-02-15T14:36:18;16.23;;;13.48;;
17662;SDS011;8950;56.892;15.090;2023-02-15T14:38:56;16.92;;;14.73;;
17662;SDS011;8950;56.892;15.090;2023-02-15T14:41:28;17.08;;;14.07;;
17662;SDS011;8950;56.892;15.090;2023-02-15T14:43:56;16.13;;;14.30;;
17662;SDS011;8950;56.892;15.090;2023-02-15T14:46:28;16.80;;;13.98;;
17662;SDS011;8950;56.892;15.090;2023-02-15T14:48:55;15.75;;;12.90;;
17662;SDS011;8950;56.892;15.090;2023-02-15T14:51:53;13.32;;;11.65;;
17662;SDS011;8950;56.892;15.090;2023-02-15T14:57:24;15.50;;;12.23;;
17662;SDS011;8950;56.892;15.090;2023-02-15T14:59:52;14.10;;;12.57;;
17662;SDS011;8950;56.892;15.090;2023-02-15T15:02:21;15.07;;;11.32;;
17662;SDS011;8950;56.892;15.090;2023-02-15T15:04:54;14.73;;;12.05;;
17662;SDS011;8950;56.892;15.090;2023-02-15T15:07:23;15.40;;;12.43;;
17662;SDS011;8950;56.892;15.090;2023-02-15T15:09:57;12.88;;;11.48;;
17662;SDS011;8950;56.892;15.090;2023-02-15T15:12:39;13.88;;;11.32;;
17662;SDS011;8950;56.892;15.090;2023-02-15T15:15:06;12.80;;;11.43;;
17662;SDS011;8950;56.892;15.090;2023-02-15T15:20:19;14.60;;;12.20;;
17662;SDS011;8950;56.892;15.090;2023-02-15T15:25:50;12.75;;;11.18;;
17662;SDS011;8950;56.892;15.090;2023-02-15T15:31:04;14.70;;;11.73;;
17662;SDS011;8950;56.892;15.090;2023-02-15T15:39:12;15.85;;;12.40;;
17662;SDS011;8950;56.892;15.090;2023-02-15T15:41:46;16.02;;;12.48;;
17662;SDS011;8950;56.892;15.090;2023-02-15T15:47:04;14.15;;;11.45;;
17662;SDS011;8950;56.892;15.090;2023-02-15T15:49:34;14.60;;;12.23;;
17662;SDS011;8950;56.892;15.090;2023-02-15T15:52:03;14.88;;;12.18;;
17662;SDS011;8950;56.892;15.090;2023-02-15T15:54:35;14.23;;;11.88;;
17662;SDS011;8950;56.892;15.090;2023-02-15T15:57:04;13.35;;;11.95;;
17662;SDS011;8950;56.892;15.090;2023-02-15T15:59:32;12.63;;;11.27;;
17662;SDS011;8950;56.892;15.090;2023-02-15T16:02:04;12.75;;;11.23;;
17662;SDS011;8950;56.892;15.090;2023-02-15T16:04:32;12.80;;;11.45;;
17662;SDS011;8950;56.892;15.090;2023-02-15T16:07:12;13.40;;;11.73;;
17662;SDS011;8950;56.892;15.090;2023-02-15T16:09:39;13.82;;;11.57;;
17662;SDS011;8950;56.892;15.090;2023-02-15T16:12:10;14.88;;;12.30;;
17662;SDS011;8950;56.892;15.090;2023-02-15T16:14:40;15.77;;;12.23;;
17662;SDS011;8950;56.892;15.090;2023-02-15T16:17:13;14.18;;;12.40;;
17662;SDS011;8950;56.892;15.090;2023-02-15T16:19:41;13.90;;;11.18;;
17662;SDS011;8950;56.892;15.090;2023-02-15T16:22:09;14.07;;;11.48;;
17662;SDS011;8950;56.892;15.090;2023-02-15T16:24:37;14.35;;;11.98;;
17662;SDS011;8950;56.892;15.090;2023-02-15T16:27:08;14.02;;;11.85;;
17662;SDS011;8950;56.892;15.090;2023-02-15T16:29:37;13.75;;;11.73;;
17662;SDS011;8950;56.892;15.090;2023-02-15T16:32:04;12.02;;;10.30;;
17662;SDS011;8950;56.892;15.090;2023-02-15T16:34:33;14.48;;;12.35;;
17662;SDS011;8950;56.892;15.090;2023-02-15T16:37:12;13.02;;;10.93;;
17662;SDS011;8950;56.892;15.090;2023-02-15T16:39:40;14.35;;;12.15;;
17662;SDS011;8950;56.892;15.090;2023-02-15T16:42:07;12.57;;;11.13;;
17662;SDS011;8950;56.892;15.090;2023-02-15T16:44:34;12.77;;;10.90;;
17662;SDS011;8950;56.892;15.090;2023-02-15T16:47:01;12.32;;;10.57;;
17662;SDS011;8950;56.892;15.090;2023-02-15T16:49:28;14.00;;;11.45;;
17662;SDS011;8950;56.892;15.090;2023-02-15T16:51:57;12.27;;;10.90;;
17662;SDS011;8950;56.892;15.090;2023-02-15T16:54:25;12.25;;;10.93;;
17662;SDS011;8950;56.892;15.090;2023-02-15T16:56:51;11.40;;;9.98;;
17662;SDS011;8950;56.892;15.090;2023-02-15T16:59:19;14.13;;;10.45;;
17662;SDS011;8950;56.892;15.090;2023-02-15T17:01:48;14.35;;;11.60;;
17662;SDS011;8950;56.892;15.090;2023-02-15T17:04:23;13.23;;;11.73;;
17662;SDS011;8950;56.892;15.090;2023-02-15T17:06:58;14.13;;;11.65;;
17662;SDS011;8950;56.892;15.090;2023-02-15T17:09:25;15.32;;;11.60;;
17662;SDS011;8950;56.892;15.090;2023-02-15T17:11:52;13.35;;;11.90;;
17662;SDS011;8950;56.892;15.090;2023-02-15T17:14:19;14.48;;;12.23;;
17662;SDS011;8950;56.892;15.090;2023-02-15T17:16:47;14.80;;;12.98;;
17662;SDS011;8950;56.892;15.090;2023-02-15T17:19:16;16.00;;;12.55;;
17662;SDS011;8950;56.892;15.090;2023-02-15T17:21:46;15.93;;;12.93;;
17662;SDS011;8950;56.892;15.090;2023-02-15T17:24:16;15.00;;;12.18;;
17662;SDS011;8950;56.892;15.090;2023-02-15T17:26:45;14.88;;;13.05;;
17662;SDS011;8950;56.892;15.090;2023-02-15T17:29:18;17.40;;;13.25;;
17662;SDS011;8950;56.892;15.090;2023-02-15T17:31:46;15.38;;;12.95;;
17662;SDS011;8950;56.892;15.090;2023-02-15T17:34:39;15.65;;;12.75;;
17662;SDS011;8950;56.892;15.090;2023-02-15T17:37:09;14.43;;;12.15;;
17662;SDS011;8950;56.892;15.090;2023-02-15T17:39:37;15.00;;;13.38;;
17662;SDS011;8950;56.892;15.090;2023-02-15T17:42:05;13.95;;;12.15;;
17662;SDS011;8950;56.892;15.090;2023-02-15T17:44:31;15.05;;;12.98;;
17662;SDS011;8950;56.892;15.090;2023-02-15T17:46:58;15.95;;;12.73;;
17662;SDS011;8950;56.892;15.090;2023-02-15T17:49:25;15.07;;;11.95;;
17662;SDS011;8950;56.892;15.090;2023-02-15T17:51:53;15.20;;;12.48;;
17662;SDS011;8950;56.892;15.090;2023-02-15T17:54:19;15.43;;;13.05;;
17662;SDS011;8950;56.892;15.090;2023-02-15T17:57:07;15.48;;;13.20;;
17662;SDS011;8950;56.892;15.090;2023-02-15T17:59:37;14.38;;;12.23;;
17662;SDS011;8950;56.892;15.090;2023-02-15T18:02:21;15.77;;;13.02;;
17662;SDS011;8950;56.892;15.090;2023-02-15T18:05:07;15.23;;;13.27;;
17662;SDS011;8950;56.892;15.090;2023-02-15T18:07:55;16.52;;;13.13;;
17662;SDS011;8950;56.892;15.090;2023-02-15T18:10:39;16.05;;;14.00;;
17662;SDS011;8950;56.892;15.090;2023-02-15T18:13:24;19.02;;;14.73;;
17662;SDS011;8950;56.892;15.090;2023-02-15T18:15:50;16.50;;;14.10;;
17662;SDS011;8950;56.892;15.090;2023-02-15T18:18:17;17.00;;;14.55;;
17662;SDS011;8950;56.892;15.090;2023-02-15T18:20:43;16.13;;;14.18;;
17662;SDS011;8950;56.892;15.090;2023-02-15T18:23:11;16.80;;;14.02;;
17662;SDS011;8950;56.892;15.090;2023-02-15T18:25:39;18.67;;;13.77;;
17662;SDS011;8950;56.892;15.090;2023-02-15T18:28:07;17.70;;;13.73;;
17662;SDS011;8950;56.892;15.090;2023-02-15T18:30:35;16.98;;;14.57;;
17662;SDS011;8950;56.892;15.090;2023-02-15T18:33:05;19.17;;;15.40;;
17662;SDS011;8950;56.892;15.090;2023-02-15T18:35:31;17.67;;;14.73;;
17662;SDS011;8950;56.892;15.090;2023-02-15T18:37:58;17.70;;;15.07;;
17662;SDS011;8950;56.892;15.090;2023-02-15T18:40:26;17.05;;;14.23;;